createdAt,value
2018-03-22T00:00:37.805Z,0
2018-03-22T00:01:23.433Z,0
2018-03-22T00:02:38.110Z,0
2018-03-22T00:03:23.455Z,0
2018-03-22T00:04:23.473Z,0
2018-03-22T00:05:23.241Z,0
2018-03-22T00:06:22.987Z,0
2018-03-22T00:07:38.274Z,0
2018-03-22T00:08:23.274Z,0
2018-03-22T00:09:23.041Z,0
2018-03-22T00:10:38.221Z,0
2018-03-22T00:11:23.583Z,0
2018-03-22T00:12:38.254Z,0
2018-03-22T00:13:52.923Z,0
2018-03-22T00:14:23.637Z,0
2018-03-22T00:15:23.637Z,0
2018-03-22T00:16:23.651Z,0
2018-03-22T00:17:23.669Z,0
2018-03-22T00:18:38.192Z,0
2018-03-22T00:19:23.445Z,0
2018-03-22T00:20:23.726Z,0
2018-03-22T00:22:23.237Z,0
2018-03-22T00:24:23.777Z,0
2018-03-22T00:25:23.532Z,0
2018-03-22T00:26:38.466Z,0
2018-03-22T00:27:23.050Z,0
2018-03-22T00:28:23.859Z,0
2018-03-22T00:29:53.169Z,0
2018-03-22T00:30:23.618Z,0
2018-03-22T00:31:23.628Z,0
2018-03-22T00:32:23.643Z,0
2018-03-22T00:33:23.660Z,0
2018-03-22T00:34:23.673Z,0
2018-03-22T00:35:23.684Z,0
2018-03-22T00:36:23.965Z,0
2018-03-22T00:37:38.372Z,0
2018-03-22T00:38:24.014Z,0
2018-03-22T00:39:24.120Z,0
2018-03-22T00:40:38.432Z,0
2018-03-22T00:41:24.038Z,0
2018-03-22T00:42:24.061Z,0
2018-03-22T00:43:24.077Z,0
2018-03-22T00:44:53.144Z,0
2018-03-22T00:45:24.107Z,0
2018-03-22T00:46:24.119Z,0
2018-03-22T00:47:23.873Z,0
2018-03-22T00:48:24.244Z,0
2018-03-22T00:49:24.163Z,0
2018-03-22T00:50:38.836Z,0
2018-03-22T00:51:23.930Z,0
2018-03-22T00:52:38.861Z,0
2018-03-22T00:53:23.961Z,0
2018-03-22T00:54:23.716Z,0
2018-03-22T00:55:23.996Z,0
2018-03-22T00:56:24.273Z,0
2018-03-22T00:57:24.028Z,0
2018-03-22T00:58:24.312Z,0
2018-03-22T01:00:24.336Z,0
2018-03-22T01:01:24.080Z,0
2018-03-22T01:02:24.358Z,0
2018-03-22T01:03:24.113Z,0
2018-03-22T01:04:24.135Z,0
2018-03-22T01:05:38.801Z,0
2018-03-22T01:06:24.164Z,0
2018-03-22T01:07:24.194Z,0
2018-03-22T01:08:24.461Z,0
2018-03-22T01:10:24.478Z,0
2018-03-22T01:11:24.498Z,0
2018-03-22T01:12:24.514Z,0
2018-03-22T01:14:24.549Z,0
2018-03-22T01:15:24.046Z,0
2018-03-22T01:16:39.233Z,0
2018-03-22T01:17:39.244Z,0
2018-03-22T01:18:24.604Z,0
2018-03-22T01:19:24.619Z,0
2018-03-22T01:21:24.426Z,0
2018-03-22T01:22:24.407Z,0
2018-03-22T01:23:39.335Z,0
2018-03-22T01:24:24.714Z,0
2018-03-22T01:25:24.197Z,0
2018-03-22T01:26:24.464Z,0
2018-03-22T01:27:24.752Z,0
2018-03-22T01:28:24.764Z,0
2018-03-22T01:29:24.514Z,0
2018-03-22T01:30:39.193Z,0
2018-03-22T01:31:24.542Z,0
2018-03-22T01:32:54.132Z,0
2018-03-22T01:33:24.313Z,0
2018-03-22T01:34:39.504Z,0
2018-03-22T01:35:24.608Z,0
2018-03-22T01:36:24.631Z,0
2018-03-22T01:37:24.372Z,0
2018-03-22T01:38:39.572Z,0
2018-03-22T01:39:39.581Z,0
2018-03-22T01:40:24.687Z,0
2018-03-22T01:41:39.354Z,0
2018-03-22T01:42:24.979Z,0
2018-03-22T01:43:24.470Z,0
2018-03-22T01:44:25.009Z,0
2018-03-22T01:45:25.021Z,0
2018-03-22T01:46:24.779Z,0
2018-03-22T01:47:39.705Z,0
2018-03-22T01:48:39.454Z,0
2018-03-22T01:49:24.562Z,0
2018-03-22T01:50:25.098Z,0
2018-03-22T01:51:24.853Z,0
2018-03-22T01:52:24.605Z,0
2018-03-22T01:53:25.129Z,0
2018-03-22T01:54:25.153Z,0
2018-03-22T01:55:25.168Z,0
2018-03-22T01:56:24.666Z,0
2018-03-22T01:57:25.300Z,0
2018-03-22T01:58:25.223Z,0
2018-03-22T02:00:39.902Z,0
2018-03-22T02:01:39.915Z,0
2018-03-22T02:02:25.278Z,0
2018-03-22T02:03:25.024Z,0
2018-03-22T02:04:39.440Z,0
2018-03-22T02:05:25.317Z,0
2018-03-22T02:06:25.334Z,0
2018-03-22T02:07:25.342Z,0
2018-03-22T02:08:25.471Z,0
2018-03-22T02:09:25.121Z,0
2018-03-22T02:11:25.144Z,0
2018-03-22T02:12:25.431Z,0
2018-03-22T02:13:25.175Z,0
2018-03-22T02:14:40.105Z,0
2018-03-22T02:15:25.462Z,0
2018-03-22T02:16:25.229Z,0
2018-03-22T02:17:25.494Z,0
2018-03-22T02:19:39.925Z,0
2018-03-22T02:21:25.309Z,0
2018-03-22T02:22:25.321Z,0
2018-03-22T02:23:25.601Z,0
2018-03-22T02:24:25.081Z,0
2018-03-22T02:25:40.011Z,0
2018-03-22T02:26:40.305Z,0
2018-03-22T02:27:25.393Z,0
2018-03-22T02:28:25.401Z,0
2018-03-22T02:29:25.416Z,0
2018-03-22T02:30:25.711Z,0
2018-03-22T02:31:25.723Z,0
2018-03-22T02:32:25.750Z,0
2018-03-22T02:33:40.401Z,0
2018-03-22T02:34:25.595Z,0
2018-03-22T02:35:40.423Z,0
2018-03-22T02:36:25.786Z,0
2018-03-22T02:37:25.542Z,0
2018-03-22T02:38:25.560Z,0
2018-03-22T02:39:25.848Z,0
2018-03-22T02:40:40.525Z,0
2018-03-22T02:41:25.860Z,0
2018-03-22T02:42:40.554Z,0
2018-03-22T02:43:25.657Z,0
2018-03-22T02:44:25.647Z,0
2018-03-22T02:45:25.687Z,0
2018-03-22T02:46:25.671Z,0
2018-03-22T02:47:25.981Z,0
2018-03-22T02:48:25.717Z,0
2018-03-22T02:49:25.728Z,0
2018-03-22T02:51:40.666Z,0
2018-03-22T02:52:25.513Z,0
2018-03-22T02:53:26.049Z,0
2018-03-22T02:54:40.755Z,0
2018-03-22T02:56:25.818Z,0
2018-03-22T02:57:25.849Z,0
2018-03-22T02:58:40.790Z,0
2018-03-22T02:59:26.145Z,0
2018-03-22T03:00:26.181Z,0
2018-03-22T03:01:26.154Z,0
2018-03-22T03:02:25.914Z,0
2018-03-22T03:03:40.843Z,0
2018-03-22T03:04:26.209Z,0
2018-03-22T03:05:25.709Z,0
2018-03-22T03:06:25.708Z,0
2018-03-22T03:07:40.907Z,0
2018-03-22T03:08:26.263Z,0
2018-03-22T03:09:26.371Z,0
2018-03-22T03:10:26.029Z,0
2018-03-22T03:11:26.294Z,0
2018-03-22T03:12:26.064Z,0
2018-03-22T03:13:40.723Z,0
2018-03-22T03:14:26.339Z,0
2018-03-22T03:15:26.370Z,0
2018-03-22T03:16:25.593Z,0
2018-03-22T03:17:26.387Z,0
2018-03-22T03:18:41.064Z,0
2018-03-22T03:19:26.416Z,0
2018-03-22T03:20:41.088Z,0
2018-03-22T03:21:26.447Z,0
2018-03-22T03:22:25.949Z,0
2018-03-22T03:23:41.141Z,0
2018-03-22T03:25:40.903Z,0
2018-03-22T03:26:26.520Z,0
2018-03-22T03:27:26.537Z,0
2018-03-22T03:28:41.208Z,0
2018-03-22T03:29:26.301Z,0
2018-03-22T03:30:26.520Z,0
2018-03-22T03:31:26.336Z,0
2018-03-22T03:32:41.263Z,0
2018-03-22T03:33:26.363Z,0
2018-03-22T03:34:26.651Z,0
2018-03-22T03:35:26.143Z,0
2018-03-22T03:37:26.680Z,0
2018-03-22T03:38:26.435Z,0
2018-03-22T03:39:41.374Z,0
2018-03-22T03:40:26.734Z,0
2018-03-22T03:41:26.933Z,0
2018-03-22T03:43:26.779Z,0
2018-03-22T03:44:41.446Z,0
2018-03-22T03:45:26.799Z,0
2018-03-22T03:46:26.827Z,0
2018-03-22T03:47:41.491Z,0
2018-03-22T03:48:26.429Z,0
2018-03-22T03:49:26.600Z,0
2018-03-22T03:50:26.873Z,0
2018-03-22T03:51:26.886Z,0
2018-03-22T03:52:26.901Z,0
2018-03-22T03:53:26.658Z,0
2018-03-22T03:54:41.590Z,0
2018-03-22T03:55:26.694Z,0
2018-03-22T03:56:26.969Z,0
2018-03-22T03:57:26.978Z,0
2018-03-22T03:58:27.002Z,0
2018-03-22T03:59:26.750Z,0
2018-03-22T04:00:27.018Z,0
2018-03-22T04:01:27.038Z,0
2018-03-22T04:02:41.722Z,0
2018-03-22T04:03:26.285Z,0
2018-03-22T04:04:26.825Z,0
2018-03-22T04:05:26.325Z,0
2018-03-22T04:06:27.108Z,0
2018-03-22T04:07:26.866Z,0
2018-03-22T04:08:26.885Z,0
2018-03-22T04:09:26.894Z,0
2018-03-22T04:10:27.180Z,0
2018-03-22T04:11:41.585Z,0
2018-03-22T04:13:26.957Z,0
2018-03-22T04:14:27.234Z,0
2018-03-22T04:15:27.306Z,0
2018-03-22T04:16:26.737Z,0
2018-03-22T04:17:27.333Z,0
2018-03-22T04:18:27.306Z,0
2018-03-22T04:19:27.039Z,0
2018-03-22T04:20:27.318Z,0
2018-03-22T04:21:27.085Z,0
2018-03-22T04:22:27.090Z,0
2018-03-22T04:23:27.106Z,0
2018-03-22T04:24:27.377Z,0
2018-03-22T04:27:27.165Z,0
2018-03-22T04:28:27.436Z,0
2018-03-22T04:31:27.487Z,0
2018-03-22T04:32:27.241Z,0
2018-03-22T04:33:27.511Z,0
2018-03-22T04:34:27.269Z,0
2018-03-22T04:35:27.296Z,0
2018-03-22T04:36:27.301Z,0
2018-03-22T04:37:27.577Z,0
2018-03-22T04:38:42.250Z,0
2018-03-22T04:39:27.343Z,0
2018-03-22T04:40:27.611Z,0
2018-03-22T04:41:27.639Z,0
2018-03-22T04:42:42.307Z,0
2018-03-22T04:43:26.878Z,0
2018-03-22T04:44:27.417Z,0
2018-03-22T04:45:42.340Z,0
2018-03-22T04:46:27.700Z,0
2018-03-22T04:47:27.713Z,0
2018-03-22T04:48:27.747Z,0
2018-03-22T04:49:27.484Z,0
2018-03-22T04:50:42.417Z,0
2018-03-22T04:51:27.776Z,0
2018-03-22T04:52:42.455Z,0
2018-03-22T04:53:27.810Z,0
2018-03-22T04:54:27.559Z,0
2018-03-22T04:55:27.835Z,0
2018-03-22T04:56:27.071Z,0
2018-03-22T04:57:27.613Z,0
2018-03-22T04:58:42.276Z,0
2018-03-22T04:59:27.681Z,0
2018-03-22T05:01:27.923Z,0
2018-03-22T05:02:27.674Z,0
2018-03-22T05:03:27.955Z,0
2018-03-22T05:04:27.709Z,0
2018-03-22T05:05:27.983Z,0
2018-03-22T05:06:27.734Z,0
2018-03-22T05:07:28.006Z,0
2018-03-22T05:08:27.770Z,0
2018-03-22T05:09:42.707Z,0
2018-03-22T05:10:28.064Z,0
2018-03-22T05:11:28.066Z,0
2018-03-22T05:12:28.080Z,0
2018-03-22T05:13:27.837Z,0
2018-03-22T05:14:42.510Z,0
2018-03-22T05:15:42.524Z,0
2018-03-22T05:16:28.151Z,0
2018-03-22T05:17:42.812Z,0
2018-03-22T05:18:27.913Z,0
2018-03-22T05:19:42.584Z,0
2018-03-22T05:20:42.870Z,0
2018-03-22T05:21:28.218Z,0
2018-03-22T05:22:27.979Z,0
2018-03-22T05:23:27.463Z,0
2018-03-22T05:24:28.258Z,0
2018-03-22T05:25:28.286Z,0
2018-03-22T05:26:28.028Z,0
2018-03-22T05:27:28.044Z,0
2018-03-22T05:28:42.976Z,0
2018-03-22T05:29:42.751Z,0
2018-03-22T05:30:28.355Z,0
2018-03-22T05:32:28.115Z,0
2018-03-22T05:33:28.132Z,0
2018-03-22T05:34:28.408Z,0
2018-03-22T05:35:28.467Z,0
2018-03-22T05:36:27.926Z,0
2018-03-22T05:37:27.934Z,0
2018-03-22T05:38:27.944Z,0
2018-03-22T05:39:28.224Z,0
2018-03-22T05:40:42.903Z,5
2018-03-22T05:41:28.252Z,5
2018-03-22T05:42:28.003Z,5
2018-03-22T05:43:28.026Z,5
2018-03-22T05:44:28.560Z,5
2018-03-22T05:45:28.312Z,5
2018-03-22T05:46:28.064Z,5
2018-03-22T05:47:28.611Z,5
2018-03-22T05:48:28.352Z,5
2018-03-22T05:49:28.364Z,5
2018-03-22T05:50:28.391Z,5
2018-03-22T05:51:28.397Z,5
2018-03-22T05:52:28.420Z,5
2018-03-22T05:55:28.453Z,10
2018-03-22T05:56:28.475Z,10
2018-03-22T05:57:28.488Z,10
2018-03-22T05:58:28.781Z,10
2018-03-22T05:59:28.617Z,10
2018-03-22T06:00:28.275Z,10
2018-03-22T06:01:58.130Z,5
2018-03-22T06:02:28.557Z,5
2018-03-22T06:04:28.591Z,10
2018-03-22T06:05:28.865Z,10
2018-03-22T06:06:28.877Z,10
2018-03-22T06:07:28.890Z,10
2018-03-22T06:08:43.564Z,10
2018-03-22T06:09:43.581Z,10
2018-03-22T06:10:28.679Z,10
2018-03-22T06:11:43.608Z,10
2018-03-22T06:12:28.452Z,10
2018-03-22T06:13:28.460Z,10
2018-03-22T06:14:29.002Z,10
2018-03-22T06:15:28.510Z,15
2018-03-22T06:16:28.512Z,15
2018-03-22T06:17:43.709Z,15
2018-03-22T06:18:28.329Z,15
2018-03-22T06:19:28.809Z,20
2018-03-22T06:20:29.081Z,20
2018-03-22T06:21:29.097Z,25
2018-03-22T06:22:29.165Z,25
2018-03-22T06:23:29.133Z,30
2018-03-22T06:24:43.800Z,30
2018-03-22T06:25:29.169Z,30
2018-03-22T06:26:43.571Z,30
2018-03-22T06:27:43.595Z,35
2018-03-22T06:29:29.228Z,35
2018-03-22T06:30:28.724Z,35
2018-03-22T06:31:29.271Z,35
2018-03-22T06:32:43.764Z,40
2018-03-22T06:33:43.930Z,40
2018-03-22T06:34:29.048Z,40
2018-03-22T06:35:29.312Z,40
2018-03-22T06:36:43.721Z,45
2018-03-22T06:37:29.334Z,45
2018-03-22T06:38:44.019Z,45
2018-03-22T06:39:28.589Z,40
2018-03-22T06:40:44.044Z,45
2018-03-22T06:41:44.060Z,45
2018-03-22T06:42:28.903Z,45
2018-03-22T06:43:29.442Z,45
2018-03-22T06:44:29.468Z,45
2018-03-22T06:45:29.200Z,40
2018-03-22T06:46:43.882Z,40
2018-03-22T06:47:29.230Z,40
2018-03-22T06:48:28.726Z,40
2018-03-22T06:49:44.240Z,40
2018-03-22T06:50:43.935Z,35
2018-03-22T06:52:29.572Z,35
2018-03-22T06:53:29.327Z,30
2018-03-22T06:54:29.606Z,25
2018-03-22T06:55:29.618Z,25
2018-03-22T06:56:29.631Z,20
2018-03-22T06:57:29.379Z,20
2018-03-22T06:58:29.395Z,20
2018-03-22T06:59:29.423Z,15
2018-03-22T07:00:29.174Z,15
2018-03-22T07:01:29.704Z,15
2018-03-22T07:02:44.124Z,15
2018-03-22T07:03:29.477Z,20
2018-03-22T07:04:44.406Z,20
2018-03-22T07:05:29.500Z,20
2018-03-22T07:06:29.515Z,20
2018-03-22T07:07:29.533Z,25
2018-03-22T07:08:29.814Z,25
2018-03-22T07:09:29.829Z,25
2018-03-22T07:10:29.836Z,30
2018-03-22T07:11:29.596Z,30
2018-03-22T07:12:30.028Z,30
2018-03-22T07:13:29.625Z,30
2018-03-22T07:14:29.896Z,30
2018-03-22T07:15:29.663Z,30
2018-03-22T07:16:29.667Z,30
2018-03-22T07:17:29.944Z,30
2018-03-22T07:18:29.984Z,30
2018-03-22T07:19:29.717Z,30
2018-03-22T07:20:29.992Z,30
2018-03-22T07:21:30.011Z,30
2018-03-22T07:22:29.760Z,30
2018-03-22T07:23:29.777Z,30
2018-03-22T07:24:29.812Z,35
2018-03-22T07:25:29.853Z,35
2018-03-22T07:26:44.486Z,35
2018-03-22T07:27:44.491Z,40
2018-03-22T07:28:29.859Z,40
2018-03-22T07:29:44.785Z,40
2018-03-22T07:30:30.140Z,40
2018-03-22T07:31:29.894Z,35
2018-03-22T07:32:29.925Z,35
2018-03-22T07:33:30.183Z,30
2018-03-22T07:34:29.938Z,30
2018-03-22T07:35:30.218Z,30
2018-03-22T07:36:44.372Z,30
2018-03-22T07:37:30.246Z,30
2018-03-22T07:38:30.262Z,30
2018-03-22T07:39:30.271Z,30
2018-03-22T07:41:30.301Z,25
2018-03-22T07:42:30.316Z,30
2018-03-22T07:43:30.066Z,25
2018-03-22T07:44:45.003Z,25
2018-03-22T07:45:30.362Z,25
2018-03-22T07:46:29.868Z,25
2018-03-22T07:47:30.211Z,25
2018-03-22T07:48:45.086Z,25
2018-03-22T07:49:45.092Z,25
2018-03-22T07:50:30.233Z,25
2018-03-22T07:51:30.457Z,25
2018-03-22T07:52:45.023Z,30
2018-03-22T07:53:30.218Z,30
2018-03-22T07:54:30.233Z,30
2018-03-22T07:56:30.674Z,25
2018-03-22T07:57:45.208Z,25
2018-03-22T07:58:30.041Z,25
2018-03-22T07:59:30.575Z,25
2018-03-22T08:00:30.583Z,30
2018-03-22T08:01:45.020Z,30
2018-03-22T08:02:30.455Z,30
2018-03-22T08:03:30.630Z,30
2018-03-22T08:04:30.645Z,35
2018-03-22T08:05:45.385Z,35
2018-03-22T08:06:45.332Z,35
2018-03-22T08:07:30.173Z,35
2018-03-22T08:09:00.020Z,35
2018-03-22T08:09:45.376Z,30
2018-03-22T08:10:30.210Z,35
2018-03-22T08:11:45.416Z,35
2018-03-22T08:12:45.656Z,40
2018-03-22T08:13:30.527Z,45
2018-03-22T08:14:30.793Z,45
2018-03-22T08:15:30.550Z,40
2018-03-22T08:16:45.479Z,40
2018-03-22T08:17:30.834Z,40
2018-03-22T08:18:30.868Z,35
2018-03-22T08:19:30.606Z,30
2018-03-22T08:20:30.924Z,25
2018-03-22T08:22:30.920Z,25
2018-03-22T08:23:30.926Z,30
2018-03-22T08:24:45.082Z,30
2018-03-22T08:25:30.448Z,30
2018-03-22T08:26:45.371Z,25
2018-03-22T08:28:30.999Z,30
2018-03-22T08:29:30.771Z,40
2018-03-22T08:30:31.029Z,40
2018-03-22T08:31:45.443Z,45
2018-03-22T08:32:45.462Z,45
2018-03-22T08:33:45.739Z,50
2018-03-22T08:34:31.097Z,50
2018-03-22T08:35:31.116Z,50
2018-03-22T08:36:31.118Z,50
2018-03-22T08:37:30.878Z,45
2018-03-22T08:38:31.153Z,45
2018-03-22T08:39:45.825Z,50
2018-03-22T08:40:31.190Z,50
2018-03-22T08:41:31.258Z,50
2018-03-22T08:42:30.958Z,50
2018-03-22T08:43:31.223Z,50
2018-03-22T08:44:31.249Z,50
2018-03-22T08:45:30.996Z,55
2018-03-22T08:46:45.929Z,55
2018-03-22T08:47:31.022Z,50
2018-03-22T08:48:31.124Z,45
2018-03-22T08:49:31.076Z,45
2018-03-22T08:50:31.085Z,50
2018-03-22T08:51:31.352Z,50
2018-03-22T08:52:31.097Z,50
2018-03-22T08:53:31.382Z,55
2018-03-22T08:54:31.402Z,40
2018-03-22T08:55:31.407Z,35
2018-03-22T08:56:31.164Z,40
2018-03-22T08:57:45.838Z,40
2018-03-22T08:58:31.194Z,45
2018-03-22T08:59:31.203Z,55
2018-03-22T09:00:31.530Z,55
2018-03-22T09:01:31.496Z,55
2018-03-22T09:02:31.515Z,55
2018-03-22T09:03:31.537Z,50
2018-03-22T09:04:31.290Z,55
2018-03-22T09:05:31.297Z,55
2018-03-22T09:06:31.308Z,50
2018-03-22T09:07:31.331Z,50
2018-03-22T09:08:31.348Z,50
2018-03-22T09:09:31.622Z,55
2018-03-22T09:10:31.375Z,55
2018-03-22T09:11:46.044Z,55
2018-03-22T09:12:46.327Z,55
2018-03-22T09:13:31.157Z,65
2018-03-22T09:14:31.522Z,65
2018-03-22T09:15:31.189Z,60
2018-03-22T09:16:31.463Z,70
2018-03-22T09:17:31.223Z,75
2018-03-22T09:18:46.148Z,60
2018-03-22T09:19:31.516Z,55
2018-03-22T09:20:31.530Z,60
2018-03-22T09:21:31.816Z,60
2018-03-22T09:22:46.637Z,60
2018-03-22T09:23:31.576Z,60
2018-03-22T09:24:31.351Z,60
2018-03-22T09:25:46.518Z,60
2018-03-22T09:26:31.871Z,65
2018-03-22T09:27:46.546Z,60
2018-03-22T09:28:31.912Z,55
2018-03-22T09:29:31.404Z,65
2018-03-22T09:30:31.674Z,55
2018-03-22T09:31:31.950Z,60
2018-03-22T09:32:31.754Z,50
2018-03-22T09:33:31.739Z,55
2018-03-22T09:34:32.058Z,55
2018-03-22T09:35:31.755Z,50
2018-03-22T09:36:31.775Z,50
2018-03-22T09:37:32.052Z,50
2018-03-22T09:39:32.082Z,45
2018-03-22T09:41:31.843Z,55
2018-03-22T09:42:31.864Z,55
2018-03-22T09:43:46.787Z,55
2018-03-22T09:44:31.900Z,55
2018-03-22T09:45:31.903Z,50
2018-03-22T09:46:31.927Z,55
2018-03-22T09:47:32.204Z,55
2018-03-22T09:48:32.216Z,50
2018-03-22T09:49:31.708Z,60
2018-03-22T09:50:31.986Z,60
2018-03-22T09:51:32.274Z,60
2018-03-22T09:52:32.275Z,55
2018-03-22T09:53:32.128Z,55
2018-03-22T09:54:32.299Z,50
2018-03-22T09:55:32.336Z,40
2018-03-22T09:56:32.156Z,45
2018-03-22T09:57:32.343Z,40
2018-03-22T09:59:47.042Z,55
2018-03-22T10:00:32.400Z,55
2018-03-22T10:01:32.413Z,65
2018-03-22T10:02:32.421Z,70
2018-03-22T10:03:47.100Z,55
2018-03-22T10:04:32.459Z,55
2018-03-22T10:05:32.468Z,50
2018-03-22T10:06:32.244Z,55
2018-03-22T10:07:31.720Z,55
2018-03-22T10:08:32.578Z,55
2018-03-22T10:09:32.528Z,55
2018-03-22T10:10:32.542Z,55
2018-03-22T10:11:32.299Z,55
2018-03-22T10:12:32.568Z,45
2018-03-22T10:13:32.083Z,45
2018-03-22T10:14:46.999Z,50
2018-03-22T10:15:32.361Z,55
2018-03-22T10:17:32.394Z,50
2018-03-22T10:18:32.407Z,50
2018-03-22T10:19:32.692Z,55
2018-03-22T10:20:32.691Z,55
2018-03-22T10:21:32.717Z,60
2018-03-22T10:22:32.729Z,55
2018-03-22T10:23:32.481Z,55
2018-03-22T10:24:32.016Z,60
2018-03-22T10:25:32.769Z,60
2018-03-22T10:26:32.526Z,50
2018-03-22T10:27:32.806Z,50
2018-03-22T10:28:32.557Z,55
2018-03-22T10:29:32.829Z,55
2018-03-22T10:30:32.596Z,50
2018-03-22T10:32:47.283Z,45
2018-03-22T10:33:32.375Z,50
2018-03-22T10:34:32.658Z,45
2018-03-22T10:35:32.682Z,45
2018-03-22T10:36:32.688Z,45
2018-03-22T10:37:32.694Z,60
2018-03-22T10:38:47.372Z,55
2018-03-22T10:39:47.125Z,60
2018-03-22T10:40:32.903Z,60
2018-03-22T10:41:47.410Z,60
2018-03-22T10:42:32.770Z,60
2018-03-22T10:43:33.052Z,55
2018-03-22T10:44:32.283Z,45
2018-03-22T10:45:32.299Z,45
2018-03-22T10:47:02.410Z,40
2018-03-22T10:47:33.113Z,40
2018-03-22T10:48:32.945Z,40
2018-03-22T10:49:32.897Z,40
2018-03-22T10:50:33.158Z,40
2018-03-22T10:51:32.914Z,40
2018-03-22T10:52:32.925Z,40
2018-03-22T10:53:32.936Z,35
2018-03-22T10:54:47.869Z,35
2018-03-22T10:55:33.244Z,35
2018-03-22T10:56:33.305Z,35
2018-03-22T10:57:33.264Z,35
2018-03-22T10:58:33.014Z,35
2018-03-22T10:59:32.782Z,35
2018-03-22T11:00:33.043Z,35
2018-03-22T11:01:33.347Z,35
2018-03-22T11:02:47.477Z,35
2018-03-22T11:03:48.007Z,30
2018-03-22T11:04:33.362Z,30
2018-03-22T11:05:33.382Z,30
2018-03-22T11:06:33.138Z,30
2018-03-22T11:07:33.408Z,30
2018-03-22T11:08:32.663Z,30
2018-03-22T11:09:33.182Z,30
2018-03-22T11:10:33.460Z,30
2018-03-22T11:11:48.128Z,30
2018-03-22T11:12:47.894Z,30
2018-03-22T11:13:33.240Z,30
2018-03-22T11:14:48.185Z,30
2018-03-22T11:15:33.282Z,30
2018-03-22T11:16:33.032Z,35
2018-03-22T11:17:48.220Z,30
2018-03-22T11:19:02.892Z,35
2018-03-22T11:19:33.597Z,35
2018-03-22T11:20:33.615Z,35
2018-03-22T11:21:33.368Z,35
2018-03-22T11:22:33.642Z,45
2018-03-22T11:23:33.654Z,45
2018-03-22T11:24:33.415Z,45
2018-03-22T11:25:48.345Z,50
2018-03-22T11:26:33.440Z,45
2018-03-22T11:27:33.826Z,40
2018-03-22T11:28:48.131Z,45
2018-03-22T11:29:48.195Z,45
2018-03-22T11:30:33.754Z,45
2018-03-22T11:31:48.177Z,40
2018-03-22T11:33:33.810Z,35
2018-03-22T11:35:03.132Z,35
2018-03-22T11:35:33.837Z,35
2018-03-22T11:36:33.596Z,30
2018-03-22T11:37:33.352Z,35
2018-03-22T11:38:33.623Z,35
2018-03-22T11:39:48.032Z,40
2018-03-22T11:40:48.305Z,35
2018-03-22T11:41:34.018Z,35
2018-03-22T11:42:48.594Z,40
2018-03-22T11:43:33.950Z,40
2018-03-22T11:44:33.710Z,40
2018-03-22T11:45:48.391Z,45
2018-03-22T11:46:33.226Z,45
2018-03-22T11:47:33.758Z,45
2018-03-22T11:48:33.765Z,45
2018-03-22T11:49:48.708Z,50
2018-03-22T11:50:33.542Z,45
2018-03-22T11:51:33.814Z,40
2018-03-22T11:52:48.487Z,40
2018-03-22T11:53:34.107Z,45
2018-03-22T11:55:34.131Z,45
2018-03-22T11:56:33.731Z,40
2018-03-22T11:57:34.180Z,40
2018-03-22T11:58:48.894Z,35
2018-03-22T11:59:33.940Z,35
2018-03-22T12:00:48.906Z,35
2018-03-22T12:01:34.234Z,35
2018-03-22T12:02:33.982Z,35
2018-03-22T12:03:33.738Z,35
2018-03-22T12:04:49.005Z,40
2018-03-22T12:05:33.784Z,40
2018-03-22T12:07:34.333Z,40
2018-03-22T12:08:33.818Z,45
2018-03-22T12:09:34.091Z,40
2018-03-22T12:10:48.759Z,45
2018-03-22T12:11:34.124Z,45
2018-03-22T12:12:34.593Z,50
2018-03-22T12:13:34.149Z,50
2018-03-22T12:14:33.648Z,50
2018-03-22T12:15:48.834Z,50
2018-03-22T12:16:48.858Z,50
2018-03-22T12:17:34.207Z,45
2018-03-22T12:18:34.492Z,45
2018-03-22T12:19:49.159Z,45
2018-03-22T12:20:34.270Z,40
2018-03-22T12:21:48.957Z,45
2018-03-22T12:22:48.949Z,45
2018-03-22T12:23:34.304Z,45
2018-03-22T12:24:33.837Z,45
2018-03-22T12:25:34.327Z,45
2018-03-22T12:26:48.745Z,50
2018-03-22T12:27:34.379Z,50
2018-03-22T12:29:34.137Z,45
2018-03-22T12:30:34.407Z,45
2018-03-22T12:31:34.425Z,40
2018-03-22T12:32:34.473Z,40
2018-03-22T12:33:34.714Z,40
2018-03-22T12:34:34.746Z,45
2018-03-22T12:35:34.597Z,50
2018-03-22T12:36:49.160Z,45
2018-03-22T12:37:49.431Z,40
2018-03-22T12:38:34.528Z,40
2018-03-22T12:40:48.962Z,35
2018-03-22T12:42:49.255Z,35
2018-03-22T12:43:34.769Z,40
2018-03-22T12:44:34.674Z,35
2018-03-22T12:46:34.442Z,35
2018-03-22T12:47:49.329Z,35
2018-03-22T12:48:49.610Z,35
2018-03-22T12:49:34.697Z,40
2018-03-22T12:50:34.734Z,40
2018-03-22T12:51:49.662Z,40
2018-03-22T12:52:34.493Z,40
2018-03-22T12:53:49.674Z,35
2018-03-22T12:55:34.790Z,35
2018-03-22T12:56:34.809Z,35
2018-03-22T12:57:34.928Z,35
2018-03-22T12:58:49.769Z,35
2018-03-22T12:59:49.507Z,35
2018-03-22T13:00:34.870Z,40
2018-03-22T13:01:35.151Z,40
2018-03-22T13:02:35.160Z,40
2018-03-22T13:03:35.224Z,40
2018-03-22T13:04:34.975Z,40
2018-03-22T13:05:35.260Z,40
2018-03-22T13:06:34.983Z,40
2018-03-22T13:07:34.729Z,40
2018-03-22T13:08:34.991Z,35
2018-03-22T13:09:49.921Z,35
2018-03-22T13:11:49.697Z,35
2018-03-22T13:12:35.057Z,35
2018-03-22T13:13:49.724Z,35
2018-03-22T13:14:35.351Z,35
2018-03-22T13:15:35.367Z,35
2018-03-22T13:16:35.430Z,40
2018-03-22T13:17:35.143Z,35
2018-03-22T13:18:34.909Z,35
2018-03-22T13:19:34.642Z,35
2018-03-22T13:20:35.184Z,35
2018-03-22T13:21:35.198Z,30
2018-03-22T13:22:34.948Z,35
2018-03-22T13:23:35.224Z,35
2018-03-22T13:24:50.160Z,35
2018-03-22T13:25:50.174Z,30
2018-03-22T13:26:35.534Z,35
2018-03-22T13:27:49.945Z,35
2018-03-22T13:28:35.052Z,35
2018-03-22T13:29:35.317Z,35
2018-03-22T13:30:35.592Z,35
2018-03-22T13:31:35.092Z,45
2018-03-22T13:32:50.022Z,35
2018-03-22T13:33:50.294Z,40
2018-03-22T13:34:50.055Z,35
2018-03-22T13:35:35.681Z,35
2018-03-22T13:36:35.428Z,35
2018-03-22T13:37:50.363Z,40
2018-03-22T13:38:35.200Z,35
2018-03-22T13:39:35.276Z,35
2018-03-22T13:40:35.753Z,35
2018-03-22T13:41:35.769Z,35
2018-03-22T13:42:35.779Z,35
2018-03-22T13:43:50.193Z,35
2018-03-22T13:44:35.033Z,40
2018-03-22T13:45:35.831Z,40
2018-03-22T13:46:35.847Z,40
2018-03-22T13:47:35.892Z,40
2018-03-22T13:48:50.272Z,35
2018-03-22T13:49:35.632Z,35
2018-03-22T13:50:35.228Z,35
2018-03-22T13:51:35.930Z,35
2018-03-22T13:52:35.936Z,35
2018-03-22T13:53:50.662Z,40
2018-03-22T13:54:35.717Z,40
2018-03-22T13:55:35.467Z,40
2018-03-22T13:56:50.399Z,35
2018-03-22T13:57:35.509Z,40
2018-03-22T13:58:35.774Z,40
2018-03-22T13:59:50.444Z,40
2018-03-22T14:00:36.093Z,35
2018-03-22T14:02:35.947Z,35
2018-03-22T14:03:36.116Z,40
2018-03-22T14:04:35.870Z,40
2018-03-22T14:05:35.628Z,35
2018-03-22T14:06:35.380Z,30
2018-03-22T14:07:35.914Z,30
2018-03-22T14:08:35.667Z,30
2018-03-22T14:09:35.694Z,30
2018-03-22T14:10:50.640Z,30
2018-03-22T14:11:36.236Z,35
2018-03-22T14:12:50.798Z,35
2018-03-22T14:13:36.288Z,30
2018-03-22T14:14:35.768Z,25
2018-03-22T14:15:35.525Z,25
2018-03-22T14:17:35.812Z,20
2018-03-22T14:18:36.345Z,20
2018-03-22T14:19:51.018Z,20
2018-03-22T14:20:36.119Z,20
2018-03-22T14:21:50.799Z,25
2018-03-22T14:22:36.155Z,25
2018-03-22T14:24:36.449Z,20
2018-03-22T14:25:36.458Z,20
2018-03-22T14:26:35.958Z,25
2018-03-22T14:27:36.229Z,20
2018-03-22T14:28:50.645Z,20
2018-03-22T14:29:36.002Z,25
2018-03-22T14:30:36.539Z,20
2018-03-22T14:31:35.776Z,25
2018-03-22T14:32:36.057Z,30
2018-03-22T14:33:36.581Z,30
2018-03-22T14:34:36.348Z,25
2018-03-22T14:35:36.101Z,25
2018-03-22T14:36:36.635Z,25
2018-03-22T14:37:36.395Z,25
2018-03-22T14:38:36.412Z,25
2018-03-22T14:39:36.419Z,25
2018-03-22T14:40:35.924Z,30
2018-03-22T14:41:36.721Z,30
2018-03-22T14:42:36.467Z,25
2018-03-22T14:43:36.228Z,25
2018-03-22T14:45:06.136Z,25
2018-03-22T14:45:36.781Z,25
2018-03-22T14:46:36.533Z,25
2018-03-22T14:47:36.587Z,25
2018-03-22T14:49:36.586Z,20
2018-03-22T14:50:36.862Z,25
2018-03-22T14:51:36.610Z,25
2018-03-22T14:52:36.731Z,20
2018-03-22T14:53:36.385Z,20
2018-03-22T14:54:36.659Z,20
2018-03-22T14:55:36.415Z,20
2018-03-22T14:56:36.692Z,20
2018-03-22T14:57:36.710Z,20
2018-03-22T14:58:36.720Z,20
2018-03-22T14:59:51.658Z,15
2018-03-22T15:00:37.155Z,20
2018-03-22T15:02:51.719Z,15
2018-03-22T15:03:36.832Z,15
2018-03-22T15:04:36.300Z,15
2018-03-22T15:05:37.094Z,15
2018-03-22T15:06:36.082Z,20
2018-03-22T15:07:36.895Z,20
2018-03-22T15:08:51.543Z,20
2018-03-22T15:10:05.955Z,15
2018-03-22T15:10:37.651Z,15
2018-03-22T15:11:37.188Z,20
2018-03-22T15:12:37.265Z,20
2018-03-22T15:13:36.973Z,15
2018-03-22T15:14:37.241Z,15
2018-03-22T15:15:37.257Z,15
2018-03-22T15:16:36.756Z,15
2018-03-22T15:17:37.297Z,15